Data for 12/04/2008

Time Sea-Level Adjusted Pressure Absolute Pressure Temperature Relative Humidity Dew Point   
(mb) (inHg) (mb) (inHg) (C) (F) (%) (C) (F)
00:05 1026 30.3 855 25.25 -9.8 14.3 83 -12.2 10.1
00:10 1026 30.3 855 25.25 -9.8 14.4 82 -12.3 9.8
00:15 1026 30.3 855 25.25 -9.8 14.3 82 -12.4 9.7
00:20 1026 30.3 855 25.25 -9.8 14.3 81 -12.4 9.6
00:25 1026 30.3 855 25.25 -9.9 14.2 82 -12.4 9.6
00:30 1026 30.3 855 25.25 -9.9 14.1 82 -12.4 9.6
00:35 1026 30.3 855 25.25 -9.9 14.2 81 -12.5 9.5
00:40 1026 30.3 855 25.25 -9.9 14.2 83 -12.3 9.9
00:45 1026 30.3 855 25.25 -9.9 14.2 82 -12.4 9.7
00:50 1026 30.3 855 25.25 -9.9 14.1 82 -12.4 9.6
00:55 1026 30.3 855 25.25 -10 14.1 82 -12.5 9.6
01:00 1026 30.3 855 25.25 -10 14.1 81 -12.7 9.1
01:05 1026 30.3 855 25.25 -10 14.1 80 -12.7 9.1
01:10 1026 30.3 855 25.25 -9.9 14.1 79 -13 8.6
01:15 1026 30.3 855 25.25 -9.9 14.1 79 -12.9 8.8
01:20 1026 30.3 855 25.25 -10 14 79 -12.9 8.7
01:25 1026 30.3 855 25.25 -10 14 80 -12.9 8.8
01:30 1026 30.3 855 25.25 -10 14 79 -13 8.6
01:35 1026 30.3 855 25.25 -10.1 13.9 81 -12.8 9
01:40 1026 30.3 855 25.25 -10.1 13.8 81 -12.8 8.9
01:45 1026 30.3 855 25.25 -10.2 13.7 79 -13.1 8.3
01:50 1026 30.3 855 25.25 -10.1 13.8 80 -12.9 8.8
01:55 1026 30.3 855 25.25 -10.1 13.8 80 -12.9 8.8
02:00 1026 30.3 855 25.25 -10.2 13.7 80 -12.9 8.7
02:05 1026 30.3 855 25.25 -10.2 13.7 78 -13.3 8
02:10 1026 30.3 855 25.25 -10.2 13.6 79 -13.1 8.4
02:15 1026 30.3 855 25.25 -10.2 13.6 79 -13.2 8.2
02:20 1026 30.3 855 25.25 -10.2 13.6 78 -13.3 8
02:25 1026 30.3 855 25.25 -10.2 13.7 78 -13.3 8
02:30 1026 30.3 855 25.25 -10.2 13.6 77 -13.5 7.8
02:35 1026 30.3 855 25.25 -10.3 13.5 79 -13.3 8
02:40 1026 30.3 855 25.25 -10.3 13.5 78 -13.4 7.8
02:45 1026 30.3 855 25.25 -10.3 13.5 76 -13.6 7.4
02:50 1026 30.3 855 25.25 -10.2 13.6 78 -13.4 7.9
02:55 1026 30.3 856 25.28 -10.2 13.6 78 -13.4 7.9
03:00 1026 30.3 855 25.25 -10.3 13.5 77 -13.5 7.7
03:05 1026 30.3 856 25.28 -10.3 13.4 79 -13.2 8.2
03:10 1026 30.3 856 25.28 -10.4 13.3 78 -13.5 7.6
03:15 1026 30.3 856 25.28 -10.4 13.4 79 -13.4 8
03:20 1026 30.3 856 25.28 -10.4 13.3 78 -13.5 7.6
03:25 1026 30.3 856 25.28 -10.3 13.4 77 -13.7 7.4
03:30 1026 30.3 856 25.28 -10.3 13.4 78 -13.4 7.8
03:35 1026 30.3 856 25.28 -10.4 13.4 74 -14.1 6.7
03:40 1026 30.3 856 25.28 -10.3 13.5 75 -13.9 7
03:45 1026 30.3 856 25.28 -10.3 13.4 77 -13.6 7.4
03:50 1026 30.3 856 25.28 -10.4 13.3 78 -13.4 7.8
03:55 1027 30.33 856 25.28 -10.4 13.3 79 -13.4 7.8
04:00 1027 30.33 856 25.28 -10.4 13.3 77 -13.7 7.3
04:05 1027 30.33 856 25.28 -10.3 13.4 77 -13.6 7.6
04:10 1027 30.33 856 25.28 -10.4 13.4 79 -13.4 7.9
04:15 1027 30.33 856 25.28 -10.3 13.4 78 -13.5 7.7
04:20 1027 30.33 856 25.28 -10.3 13.4 78 -13.4 7.9
04:25 1027 30.33 856 25.28 -10.3 13.5 78 -13.5 7.7
04:30 1027 30.33 856 25.28 -10.3 13.4 79 -13.3 8
04:35 1027 30.33 856 25.28 -10.4 13.3 78 -13.5 7.6
04:40 1027 30.33 856 25.28 -10.5 13.2 80 -13.3 8
04:45 1027 30.33 857 25.31 -10.5 13.1 80 -13.2 8.2
04:50 1027 30.33 857 25.31 -10.5 13 82 -13.1 8.4
04:55 1027 30.33 857 25.31 -10.6 12.9 82 -13.2 8.3
05:00 1027 30.33 857 25.31 -10.6 13 82 -13.1 8.5
05:05 1027 30.33 857 25.31 -10.5 13 80 -13.3 8.1
05:10 1027 30.33 857 25.31 -10.5 13 80 -13.3 8
05:15 1027 30.33 857 25.31 -10.6 13 82 -13.1 8.5
05:20 1027 30.33 857 25.31 -10.6 13 84 -12.7 9.1
05:25 1028 30.36 857 25.31 -10.4 13.3 84 -12.6 9.3
05:30 1028 30.36 857 25.31 -10.3 13.4 84 -12.6 9.4
05:35 1028 30.36 857 25.31 -10.5 13.1 82 -13 8.6
05:40 1028 30.36 857 25.31 -10.5 13.2 83 -12.8 8.9
05:45 1028 30.36 857 25.31 -10.3 13.4 72 -14.4 6
05:50 1028 30.36 857 25.31 -10.3 13.5 67 -15.3 4.5
05:55 1028 30.36 857 25.31 -10.4 13.3 64 -16.1 3.1
06:00 1028 30.36 857 25.31 -10.5 13.1 66 -15.6 3.9
06:05 1028 30.36 857 25.31 -10.6 13 63 -16.3 2.6
06:10 1028 30.36 857 25.31 -10.6 12.9 63 -16.3 2.7
06:15 1028 30.36 857 25.31 -10.7 12.8 64 -16.1 3
06:20 1028 30.36 857 25.31 -10.7 12.8 64 -16.3 2.7
06:25 1028 30.36 857 25.31 -10.7 12.8 64 -16.2 2.9
06:30 1028 30.36 857 25.31 -10.7 12.7 62 -16.7 2
06:35 1028 30.36 857 25.31 -10.7 12.8 63 -16.5 2.3
06:40 1028 30.36 857 25.31 -10.7 12.8 62 -16.6 2.2
06:45 1028 30.36 857 25.31 -10.8 12.7 63 -16.4 2.4
06:50 1028 30.36 857 25.31 -10.8 12.6 63 -16.6 2.1
06:55 1028 30.36 857 25.31 -10.8 12.5 63 -16.6 2.2
07:00 1028 30.36 857 25.31 -10.8 12.5 62 -16.7 2
07:05 1028 30.36 857 25.31 -10.8 12.5 63 -16.5 2.3
07:10 1028 30.36 857 25.31 -10.8 12.6 62 -16.7 1.9
07:15 1028 30.36 857 25.31 -10.8 12.5 61 -16.9 1.6
07:20 1028 30.36 857 25.31 -10.9 12.4 63 -16.7 2
07:25 1028 30.36 857 25.31 -11 12.3 65 -16.3 2.6
07:30 1028 30.36 857 25.31 -11.1 12.1 66 -16.2 2.9
07:35 1028 30.36 857 25.31 -11.2 11.8 67 -16.1 3
07:40 1028 30.36 857 25.31 -11.4 11.5 69 -16.1 3.1
07:45 1028 30.36 857 25.31 -11.4 11.5 68 -16.3 2.7
07:50 1028 30.36 857 25.31 -11.6 11.2 69 -16.2 2.8
07:55 1028 30.36 857 25.31 -11.6 11.1 68 -16.3 2.6
08:00 1028 30.36 858 25.34 -11.7 11 70 -16.1 3
08:05 1028 30.36 858 25.34 -11.8 10.8 70 -16.2 2.9
08:10 1028 30.36 858 25.34 -11.8 10.8 73 -15.7 3.7
08:15 1028 30.36 858 25.34 -11.9 10.5 76 -15.3 4.5
08:20 1028 30.36 858 25.34 -11.9 10.5 74 -15.7 3.7
08:25 1028 30.36 858 25.34 -11.9 10.6 73 -15.7 3.7
08:30 1028 30.36 858 25.34 -11.9 10.6 74 -15.6 3.9
08:35 1028 30.36 858 25.34 -12 10.5 74 -15.7 3.8
08:40 1028 30.36 858 25.34 -11.8 10.8 72 -15.9 3.4
08:45 1029 30.39 858 25.34 -11.7 11 71 -16 3.1
08:50 1029 30.39 858 25.34 -11.6 11.2 70 -16.1 3.1
08:55 1029 30.39 858 25.34 -11.3 11.7 68 -16.2 2.9
09:00 1028 30.36 858 25.34 -11.3 11.8 69 -15.9 3.3
09:05 1028 30.36 858 25.34 -11.1 12.1 67 -16 3.2
09:10 1029 30.39 858 25.34 -11.1 12.1 65 -16.4 2.4
09:15 1029 30.39 858 25.34 -11.1 12.1 65 -16.5 2.4
09:20 1029 30.39 858 25.34 -10.8 12.6 63 -16.6 2.2
09:25 1029 30.39 858 25.34 -10.8 12.6 64 -16.2 2.8
09:30 1029 30.39 858 25.34 -10.3 13.5 63 -16 3.2
09:35 1029 30.39 858 25.34 -10.3 13.6 64 -15.8 3.6
09:40 1029 30.39 858 25.34 -10.1 13.9 64 -15.7 3.7
09:45 1029 30.39 858 25.34 -10 14 62 -16 3.2
09:50 1029 30.39 858 25.34 -9.4 15.1 59 -16 3.2
09:55 1029 30.39 858 25.34 -9.3 15.2 59 -16 3.3
10:00 1029 30.39 858 25.34 -9.8 14.3 60 -16.2 2.9
10:05 1029 30.39 858 25.34 -9.4 15 59 -15.9 3.3
10:10 1029 30.39 858 25.34 -9.2 15.5 59 -15.7 3.7
10:15 1029 30.39 858 25.34 -9 15.8 62 -15.1 4.9
10:20 1029 30.39 858 25.34 -9.1 15.7 61 -15.3 4.5
10:25 1029 30.39 858 25.34 -8.8 16.2 60 -15.1 4.7
10:30 1029 30.39 858 25.34 -8.5 16.6 62 -14.5 5.9
10:35 1029 30.39 858 25.34 -8.5 16.7 62 -14.5 6
10:40 1029 30.39 858 25.34 -8.6 16.6 62 -14.6 5.8
10:45 1029 30.39 858 25.34 -8.9 16 64 -14.6 5.7
10:50 1029 30.39 858 25.34 -8.8 16.2 63 -14.7 5.5
10:55 1029 30.39 858 25.34 -8.6 16.5 62 -14.8 5.4
11:00 1029 30.39 858 25.34 -8.8 16.1 63 -14.6 5.7
11:05 1029 30.39 858 25.34 -8.7 16.3 62 -14.7 5.5
11:10 1029 30.39 858 25.34 -8.3 17 61 -14.6 5.7
11:15 1029 30.39 858 25.34 -7.8 18 59 -14.4 6.1
11:20 1029 30.39 858 25.34 -7.9 17.8 60 -14.3 6.2
11:25 1029 30.39 858 25.34 -8.2 17.2 61 -14.5 5.9
11:30 1029 30.39 858 25.34 -8.2 17.3 60 -14.6 5.7
11:35 1029 30.39 858 25.34 -7.8 18 59 -14.4 6.1
11:40 1029 30.39 858 25.34 -7.7 18.1 60 -14.2 6.5
11:45 1029 30.39 858 25.34 -7.9 17.8 59 -14.5 5.9
11:50 1029 30.39 858 25.34 -7.7 18.1 59 -14.5 6
11:55 1029 30.39 858 25.34 -7.3 18.8 57 -14.5 5.9
12:00 1028 30.36 858 25.34 -7.8 18 59 -14.4 6.1
12:05 1028 30.36 858 25.34 -8.1 17.3 60 -14.6 5.7
12:10 1028 30.36 857 25.31 -7.8 18 60 -14.3 6.2
12:15 1028 30.36 857 25.31 -7.7 18.1 60 -14.2 6.5
12:20 1028 30.36 857 25.31 -7.5 18.6 59 -14.2 6.4
12:25 1028 30.36 857 25.31 -7.2 19.1 57 -14.3 6.2
12:30 1028 30.36 857 25.31 -6.9 19.6 58 -13.8 7.1
12:35 1028 30.36 857 25.31 -7.2 19 58 -14.2 6.5
12:40 1028 30.36 857 25.31 -7.1 19.2 56 -14.5 5.9
12:45 1028 30.36 857 25.31 -6.9 19.6 56 -14.2 6.5
12:50 1028 30.36 857 25.31 -6.9 19.7 57 -14 6.7
12:55 1028 30.36 857 25.31 -6.8 19.8 56 -14.2 6.4
13:00 1028 30.36 857 25.31 -7.2 19 57 -14.4 6.2
13:05 1028 30.36 857 25.31 -7.2 19.1 57 -14.4 6.1
13:10 1028 30.36 857 25.31 -6.9 19.6 57 -14 6.7
13:15 1027 30.33 857 25.31 -6.6 20.1 55 -14.2 6.4
13:20 1027 30.33 857 25.31 -6.3 20.6 53 -14.4 6.1
13:25 1027 30.33 857 25.31 -6.6 20.2 58 -13.5 7.8
13:30 1027 30.33 857 25.31 -7.6 18.3 60 -14.1 6.6
13:35 1027 30.33 857 25.31 -7.9 17.8 61 -14.2 6.4
13:40 1027 30.33 857 25.31 -8.3 17.1 63 -14 6.7
13:45 1027 30.33 857 25.31 -8.3 17.1 62 -14.3 6.2
13:50 1027 30.33 857 25.31 -7.8 17.9 61 -14.1 6.6
13:55 1027 30.33 857 25.31 -7.6 18.3 60 -14.2 6.4
14:00 1027 30.33 857 25.31 -7.5 18.5 59 -14.2 6.4
14:05 1027 30.33 857 25.31 -7 19.3 57 -14.1 6.6
14:10 1027 30.33 856 25.28 -7.1 19.3 58 -14.1 6.7
14:15 1027 30.33 856 25.28 -7.3 19 60 -13.7 7.3
14:20 1027 30.33 856 25.28 -7.2 19 59 -14 6.8
14:25 1027 30.33 856 25.28 -6.8 19.7 57 -14.1 6.6
14:30 1027 30.33 856 25.28 -7.7 18.1 61 -14 6.8
14:35 1027 30.33 856 25.28 -8 17.6 62 -14.1 6.7
14:40 1027 30.33 856 25.28 -7.9 17.8 63 -13.8 7.2
14:45 1027 30.33 856 25.28 -7.6 18.4 59 -14.4 6.1
14:50 1027 30.33 856 25.28 -7.1 19.1 57 -14.4 6.2
14:55 1027 30.33 856 25.28 -7.2 19.1 56 -14.4 6
15:00 1027 30.33 856 25.28 -7 19.4 57 -14.2 6.5
15:05 1027 30.33 856 25.28 -7 19.4 58 -14 6.7
15:10 1027 30.33 856 25.28 -6.9 19.6 55 -14.4 6.1
15:15 1027 30.33 856 25.28 -6.7 19.9 54 -14.5 6
15:20 1027 30.33 856 25.28 -6.5 20.4 53 -14.7 5.6
15:25 1027 30.33 856 25.28 -6.6 20.2 54 -14.4 6.1
15:30 1027 30.33 856 25.28 -6.6 20.1 54 -14.5 5.8
15:35 1027 30.33 856 25.28 -6.6 20.1 56 -14 6.7
15:40 1026 30.3 856 25.28 -7.3 18.9 56 -14.7 5.5
15:45 1026 30.3 856 25.28 -7.5 18.4 56 -14.8 5.3
15:50 1026 30.3 856 25.28 -7.5 18.5 57 -14.6 5.8
15:55 1027 30.33 856 25.28 -7.5 18.6 57 -14.6 5.8
16:00 1027 30.33 856 25.28 -7.6 18.4 57 -14.7 5.6
16:05 1027 30.33 856 25.28 -7.8 17.9 59 -14.4 6.1
16:10 1027 30.33 856 25.28 -8.2 17.2 58 -15.1 4.8
16:15 1027 30.33 856 25.28 -8.7 16.4 60 -15.1 4.9
16:20 1027 30.33 856 25.28 -9 15.8 62 -14.9 5.1
16:25 1027 30.33 856 25.28 -9.6 14.7 64 -15.3 4.5
16:30 1027 30.33 856 25.28 -10 13.9 63 -15.7 3.7
16:35 1027 30.33 856 25.28 -10 14.1 65 -15.4 4.4
16:40 1027 30.33 856 25.28 -10.1 13.9 68 -15 5
16:45 1027 30.33 856 25.28 -10 14.1 68 -14.9 5.3
16:50 1027 30.33 856 25.28 -10.4 13.3 72 -14.6 5.8
16:55 1027 30.33 856 25.28 -10.5 13.2 72 -14.5 5.8
17:00 1027 30.33 856 25.28 -10.4 13.4 71 -14.7 5.6
17:05 1026 30.3 856 25.28 -10.9 12.3 74 -14.7 5.6
17:10 1026 30.3 856 25.28 -10.7 12.7 73 -14.6 5.7
17:15 1026 30.3 856 25.28 -10.7 12.7 74 -14.6 5.8
17:20 1026 30.3 856 25.28 -10.7 12.8 74 -14.4 6
17:25 1026 30.3 855 25.25 -10.5 13.1 73 -14.5 5.8
17:30 1026 30.3 855 25.25 -10.9 12.4 75 -14.5 5.8
17:35 1026 30.3 855 25.25 -10.9 12.4 74 -14.7 5.6
17:40 1026 30.3 855 25.25 -11.1 12 75 -14.7 5.6
17:45 1026 30.3 855 25.25 -11.4 11.4 77 -14.7 5.6
17:50 1026 30.3 855 25.25 -11.5 11.3 78 -14.6 5.7
17:55 1026 30.3 855 25.25 -11.4 11.5 79 -14.4 6.1
18:00 1026 30.3 855 25.25 -11.5 11.3 78 -14.7 5.6
18:05 1026 30.3 855 25.25 -11.9 10.6 80 -14.7 5.6
18:10 1026 30.3 855 25.25 -11.9 10.7 79 -14.7 5.5
18:15 1026 30.3 855 25.25 -11.5 11.4 79 -14.4 6
18:20 1026 30.3 855 25.25 -11.3 11.7 78 -14.4 6.1
18:25 1026 30.3 855 25.25 -10.7 12.8 77 -13.9 6.9
18:30 1026 30.3 855 25.25 -10.8 12.6 77 -14.1 6.6
18:35 1025 30.27 855 25.25 -11 12.3 76 -14.3 6.2
18:40 1025 30.27 855 25.25 -10.9 12.4 75 -14.4 6
18:45 1025 30.27 854 25.22 -11 12.2 76 -14.4 6
18:50 1025 30.27 854 25.22 -10.7 12.8 75 -14.2 6.4
18:55 1025 30.27 854 25.22 -10.4 13.4 74 -14.1 6.5
19:00 1025 30.27 854 25.22 -10.2 13.6 71 -14.4 6
19:05 1025 30.27 854 25.22 -10 13.9 71 -14.4 6.1
19:10 1025 30.27 854 25.22 -10 14.1 69 -14.6 5.7
19:15 1025 30.27 854 25.22 -10.3 13.5 72 -14.4 6.2
19:20 1025 30.27 854 25.22 -11 12.2 74 -14.8 5.4
19:25 1025 30.27 854 25.22 -11.5 11.4 74 -15.2 4.6
19:30 1025 30.27 854 25.22 -11.6 11.1 75 -15.3 4.5
19:35 1025 30.27 854 25.22 -11.3 11.7 74 -15.1 4.8
19:40 1025 30.27 854 25.22 -11.1 12.1 75 -14.6 5.7
19:45 1025 30.27 854 25.22 -11.4 11.5 73 -15.3 4.5
19:50 1025 30.27 854 25.22 -11.5 11.3 70 -15.9 3.5
19:55 1025 30.27 854 25.22 -11.1 12.1 67 -16.1 3.1
20:00 1025 30.27 854 25.22 -10.9 12.4 69 -15.6 4
20:05 1025 30.27 854 25.22 -11 12.2 67 -15.9 3.4
20:10 1025 30.27 854 25.22 -10.8 12.6 67 -15.7 3.8
20:15 1025 30.27 854 25.22 -10.7 12.7 67 -15.8 3.6
20:20 1025 30.27 854 25.22 -10.7 12.7 67 -15.6 3.9
20:25 1025 30.27 854 25.22 -11.1 12 70 -15.6 4
20:30 1025 30.27 854 25.22 -11.9 10.6 72 -15.9 3.3
20:35 1025 30.27 854 25.22 -12.3 9.9 74 -16 3.2
20:40 1025 30.27 854 25.22 -12.4 9.7 74 -16.2 2.9
20:45 1024 30.24 854 25.22 -12.3 9.9 74 -16.1 3.1
20:50 1024 30.24 853 25.19 -12.6 9.4 77 -15.8 3.5
20:55 1024 30.24 853 25.19 -12.3 9.8 76 -15.8 3.6
21:00 1024 30.24 853 25.19 -11.8 10.7 74 -15.5 4.1
21:05 1024 30.24 853 25.19 -11.4 11.5 72 -15.4 4.2
21:10 1024 30.24 853 25.19 -11.4 11.5 71 -15.6 3.9
21:15 1024 30.24 853 25.19 -11.8 10.9 73 -15.6 3.9
21:20 1024 30.24 853 25.19 -11.8 10.7 72 -15.8 3.5
21:25 1024 30.24 853 25.19 -11.6 11.1 71 -15.8 3.5
21:30 1024 30.24 853 25.19 -11.7 11 71 -15.9 3.5
21:35 1023 30.21 853 25.19 -11.9 10.6 73 -15.8 3.5
21:40 1023 30.21 853 25.19 -12.3 9.8 74 -16 3.1
21:45 1023 30.21 852 25.16 -12.2 10.1 74 -15.9 3.4
21:50 1023 30.21 852 25.16 -12.4 9.8 75 -15.9 3.4
21:55 1023 30.21 852 25.16 -12.4 9.7 76 -15.8 3.6
22:00 1023 30.21 852 25.16 -12.4 9.7 75 -16 3.3
22:05 1023 30.21 853 25.19 -12.1 10.2 74 -15.9 3.4
22:10 1024 30.24 853 25.19 -11.9 10.5 75 -15.6 4
22:15 1024 30.24 853 25.19 -11.9 10.6 75 -15.4 4.3
22:20 1024 30.24 853 25.19 -12 10.4 76 -15.4 4.2
22:25 1024 30.24 853 25.19 -12 10.4 76 -15.4 4.3
22:30 1024 30.24 853 25.19 -12.1 10.3 76 -15.6 4
22:35 1024 30.24 853 25.19 -12 10.4 74 -15.8 3.5
22:40 1024 30.24 853 25.19 -11.8 10.7 75 -15.4 4.2
22:45 1024 30.24 853 25.19 -11.5 11.3 75 -15.1 4.7
22:50 1024 30.24 853 25.19 -11.3 11.6 74 -15.1 4.7
22:55 1024 30.24 853 25.19 -11.5 11.3 73 -15.4 4.3
23:00 1024 30.24 853 25.19 -11.7 10.9 71 -16 3.1
23:05 1024 30.24 853 25.19 -11.4 11.5 71 -15.7 3.7
23:10 1024 30.24 853 25.19 -11.8 10.8 70 -16.2 2.9
23:15 1024 30.24 853 25.19 -11.5 11.4 67 -16.5 2.4
23:20 1024 30.24 853 25.19 -11 12.2 67 -15.9 3.4
23:25 1024 30.24 853 25.19 -11.2 11.9 71 -15.5 4.1
23:30 1024 30.24 853 25.19 -11.4 11.5 72 -15.5 4.1
23:35 1024 30.24 853 25.19 -11.3 11.6 73 -15.3 4.5
23:40 1024 30.24 853 25.19 -11.5 11.3 75 -15.1 4.7
23:45 1024 30.24 853 25.19 -11.5 11.3 75 -15.1 4.8
23:50 1024 30.24 853 25.19 -11.8 10.9 76 -15.1 4.8
23:55 1024 30.24 853 25.19 -11.9 10.7 77 -15.1 4.8
24:00 1024 30.24 853 25.19 -11.8 10.7 77 -15.1 4.9